sensor_id;sensor_type;location;lat;lon;timestamp;P1;durP1;ratioP1;P2;durP2;ratioP2
10872;SDS011;34586;53.616;10.032;2022-09-09T00:00:23;41.73;;;27.77;;
10872;SDS011;34586;53.616;10.032;2022-09-09T00:02:54;40.77;;;29.27;;
10872;SDS011;34586;53.616;10.032;2022-09-09T00:05:49;47.40;;;31.80;;
10872;SDS011;34586;53.616;10.032;2022-09-09T00:08:30;42.43;;;30.40;;
10872;SDS011;34586;53.616;10.032;2022-09-09T00:11:07;49.97;;;36.03;;
10872;SDS011;34586;53.616;10.032;2022-09-09T00:13:41;53.50;;;37.50;;
10872;SDS011;34586;53.616;10.032;2022-09-09T00:16:20;53.60;;;36.23;;
10872;SDS011;34586;53.616;10.032;2022-09-09T00:24:45;50.67;;;34.97;;
10872;SDS011;34586;53.616;10.032;2022-09-09T00:29:47;51.70;;;34.80;;
10872;SDS011;34586;53.616;10.032;2022-09-09T00:32:19;53.20;;;35.63;;
10872;SDS011;34586;53.616;10.032;2022-09-09T00:34:49;52.83;;;37.17;;
10872;SDS011;34586;53.616;10.032;2022-09-09T00:37:20;56.30;;;38.27;;
10872;SDS011;34586;53.616;10.032;2022-09-09T00:39:50;59.63;;;37.93;;
10872;SDS011;34586;53.616;10.032;2022-09-09T00:42:23;67.33;;;42.80;;
10872;SDS011;34586;53.616;10.032;2022-09-09T00:44:53;65.20;;;41.60;;
10872;SDS011;34586;53.616;10.032;2022-09-09T00:47:39;63.67;;;40.50;;
10872;SDS011;34586;53.616;10.032;2022-09-09T00:55:38;64.00;;;41.20;;
10872;SDS011;34586;53.616;10.032;2022-09-09T00:58:10;65.07;;;41.57;;
10872;SDS011;34586;53.616;10.032;2022-09-09T01:00:40;67.23;;;42.47;;
10872;SDS011;34586;53.616;10.032;2022-09-09T01:15:09;64.93;;;38.67;;
10872;SDS011;34586;53.616;10.032;2022-09-09T01:18:04;60.23;;;36.90;;
10872;SDS011;34586;53.616;10.032;2022-09-09T01:20:45;63.17;;;37.27;;
10872;SDS011;34586;53.616;10.032;2022-09-09T01:28:55;52.13;;;33.43;;
10872;SDS011;34586;53.616;10.032;2022-09-09T01:31:35;53.03;;;33.73;;
10872;SDS011;34586;53.616;10.032;2022-09-09T01:34:08;45.03;;;31.23;;
10872;SDS011;34586;53.616;10.032;2022-09-09T01:36:39;50.30;;;32.53;;
10872;SDS011;34586;53.616;10.032;2022-09-09T01:39:29;48.73;;;31.53;;
10872;SDS011;34586;53.616;10.032;2022-09-09T01:41:56;46.37;;;31.07;;
10872;SDS011;34586;53.616;10.032;2022-09-09T01:44:22;44.17;;;30.43;;
10872;SDS011;34586;53.616;10.032;2022-09-09T01:46:49;47.07;;;33.30;;
10872;SDS011;34586;53.616;10.032;2022-09-09T01:49:14;46.47;;;31.20;;
10872;SDS011;34586;53.616;10.032;2022-09-09T01:51:44;44.70;;;31.37;;
10872;SDS011;34586;53.616;10.032;2022-09-09T01:54:14;48.77;;;31.87;;
10872;SDS011;34586;53.616;10.032;2022-09-09T01:56:45;48.43;;;32.60;;
10872;SDS011;34586;53.616;10.032;2022-09-09T02:02:16;42.27;;;30.57;;
10872;SDS011;34586;53.616;10.032;2022-09-09T02:04:47;43.93;;;31.03;;
10872;SDS011;34586;53.616;10.032;2022-09-09T02:10:11;45.83;;;30.87;;
10872;SDS011;34586;53.616;10.032;2022-09-09T02:12:44;41.27;;;30.10;;
10872;SDS011;34586;53.616;10.032;2022-09-09T02:15:19;41.33;;;29.97;;
10872;SDS011;34586;53.616;10.032;2022-09-09T02:17:49;40.30;;;29.07;;
10872;SDS011;34586;53.616;10.032;2022-09-09T02:20:17;36.63;;;27.63;;
10872;SDS011;34586;53.616;10.032;2022-09-09T02:22:45;42.40;;;30.37;;
10872;SDS011;34586;53.616;10.032;2022-09-09T02:25:15;39.07;;;29.03;;
10872;SDS011;34586;53.616;10.032;2022-09-09T02:27:43;45.80;;;30.93;;
10872;SDS011;34586;53.616;10.032;2022-09-09T02:30:11;45.60;;;30.70;;
10872;SDS011;34586;53.616;10.032;2022-09-09T02:32:37;41.60;;;28.63;;
10872;SDS011;34586;53.616;10.032;2022-09-09T02:35:06;49.40;;;31.10;;
10872;SDS011;34586;53.616;10.032;2022-09-09T02:37:38;45.07;;;31.33;;
10872;SDS011;34586;53.616;10.032;2022-09-09T02:40:05;43.50;;;30.43;;
10872;SDS011;34586;53.616;10.032;2022-09-09T02:42:38;49.13;;;31.87;;
10872;SDS011;34586;53.616;10.032;2022-09-09T02:45:08;46.47;;;31.40;;
10872;SDS011;34586;53.616;10.032;2022-09-09T02:50:29;49.80;;;32.60;;
10872;SDS011;34586;53.616;10.032;2022-09-09T02:53:04;47.57;;;31.53;;
10872;SDS011;34586;53.616;10.032;2022-09-09T02:55:48;44.03;;;30.80;;
10872;SDS011;34586;53.616;10.032;2022-09-09T02:58:19;49.87;;;33.27;;
10872;SDS011;34586;53.616;10.032;2022-09-09T03:00:46;47.00;;;31.63;;
10872;SDS011;34586;53.616;10.032;2022-09-09T03:03:13;48.97;;;33.50;;
10872;SDS011;34586;53.616;10.032;2022-09-09T03:05:41;45.83;;;31.23;;
10872;SDS011;34586;53.616;10.032;2022-09-09T03:08:07;43.17;;;29.70;;
10872;SDS011;34586;53.616;10.032;2022-09-09T03:10:33;43.97;;;31.30;;
10872;SDS011;34586;53.616;10.032;2022-09-09T03:12:59;47.43;;;32.47;;
10872;SDS011;34586;53.616;10.032;2022-09-09T03:15:25;46.23;;;30.23;;
10872;SDS011;34586;53.616;10.032;2022-09-09T03:17:56;40.37;;;29.60;;
10872;SDS011;34586;53.616;10.032;2022-09-09T03:20:22;40.37;;;30.57;;
10872;SDS011;34586;53.616;10.032;2022-09-09T03:22:48;43.13;;;29.67;;
10872;SDS011;34586;53.616;10.032;2022-09-09T03:25:14;40.53;;;28.00;;
10872;SDS011;34586;53.616;10.032;2022-09-09T03:27:40;43.07;;;29.53;;
10872;SDS011;34586;53.616;10.032;2022-09-09T03:30:05;39.87;;;27.57;;
10872;SDS011;34586;53.616;10.032;2022-09-09T03:32:32;41.50;;;29.67;;
10872;SDS011;34586;53.616;10.032;2022-09-09T03:34:57;41.30;;;29.23;;
10872;SDS011;34586;53.616;10.032;2022-09-09T03:37:23;39.10;;;28.87;;
10872;SDS011;34586;53.616;10.032;2022-09-09T03:39:49;34.77;;;26.90;;
10872;SDS011;34586;53.616;10.032;2022-09-09T03:42:14;36.33;;;26.23;;
10872;SDS011;34586;53.616;10.032;2022-09-09T03:44:44;37.63;;;25.83;;
10872;SDS011;34586;53.616;10.032;2022-09-09T03:47:13;34.17;;;24.83;;
10872;SDS011;34586;53.616;10.032;2022-09-09T03:49:40;34.00;;;25.57;;
10872;SDS011;34586;53.616;10.032;2022-09-09T03:52:05;34.53;;;25.50;;
10872;SDS011;34586;53.616;10.032;2022-09-09T03:54:30;36.97;;;26.57;;
10872;SDS011;34586;53.616;10.032;2022-09-09T03:56:56;34.53;;;26.07;;
10872;SDS011;34586;53.616;10.032;2022-09-09T03:59:22;36.33;;;26.40;;
10872;SDS011;34586;53.616;10.032;2022-09-09T04:01:48;41.53;;;28.17;;
10872;SDS011;34586;53.616;10.032;2022-09-09T04:04:13;37.27;;;26.67;;
10872;SDS011;34586;53.616;10.032;2022-09-09T04:06:39;36.73;;;27.20;;
10872;SDS011;34586;53.616;10.032;2022-09-09T04:09:05;37.50;;;27.57;;
10872;SDS011;34586;53.616;10.032;2022-09-09T04:11:30;37.60;;;26.40;;
10872;SDS011;34586;53.616;10.032;2022-09-09T04:13:56;37.93;;;26.70;;
10872;SDS011;34586;53.616;10.032;2022-09-09T04:16:21;36.70;;;25.63;;
10872;SDS011;34586;53.616;10.032;2022-09-09T04:18:47;39.00;;;27.20;;
10872;SDS011;34586;53.616;10.032;2022-09-09T04:21:13;32.90;;;24.60;;
10872;SDS011;34586;53.616;10.032;2022-09-09T04:23:39;36.73;;;26.30;;
10872;SDS011;34586;53.616;10.032;2022-09-09T04:26:05;33.10;;;23.73;;
10872;SDS011;34586;53.616;10.032;2022-09-09T04:28:32;30.70;;;24.27;;
10872;SDS011;34586;53.616;10.032;2022-09-09T04:31:06;33.23;;;23.97;;
10872;SDS011;34586;53.616;10.032;2022-09-09T04:33:33;32.70;;;24.40;;
10872;SDS011;34586;53.616;10.032;2022-09-09T04:35:59;30.03;;;22.87;;
10872;SDS011;34586;53.616;10.032;2022-09-09T04:38:25;28.07;;;22.57;;
10872;SDS011;34586;53.616;10.032;2022-09-09T04:40:51;30.33;;;23.77;;
10872;SDS011;34586;53.616;10.032;2022-09-09T04:43:19;31.40;;;23.30;;
10872;SDS011;34586;53.616;10.032;2022-09-09T04:45:49;31.57;;;23.77;;
10872;SDS011;34586;53.616;10.032;2022-09-09T04:48:16;29.53;;;23.57;;
10872;SDS011;34586;53.616;10.032;2022-09-09T04:50:42;29.37;;;22.27;;
10872;SDS011;34586;53.616;10.032;2022-09-09T04:53:07;28.67;;;22.00;;
10872;SDS011;34586;53.616;10.032;2022-09-09T04:55:33;25.83;;;21.57;;
10872;SDS011;34586;53.616;10.032;2022-09-09T04:58:06;25.70;;;20.13;;
10872;SDS011;34586;53.616;10.032;2022-09-09T05:00:33;24.83;;;19.53;;
10872;SDS011;34586;53.616;10.032;2022-09-09T05:03:04;22.73;;;19.43;;
10872;SDS011;34586;53.616;10.032;2022-09-09T05:05:31;21.50;;;19.20;;
10872;SDS011;34586;53.616;10.032;2022-09-09T05:08:00;23.10;;;17.80;;
10872;SDS011;34586;53.616;10.032;2022-09-09T05:10:30;21.60;;;17.50;;
10872;SDS011;34586;53.616;10.032;2022-09-09T05:12:56;20.40;;;17.73;;
10872;SDS011;34586;53.616;10.032;2022-09-09T05:15:22;19.13;;;15.93;;
10872;SDS011;34586;53.616;10.032;2022-09-09T05:17:48;18.70;;;16.00;;
10872;SDS011;34586;53.616;10.032;2022-09-09T05:20:13;18.53;;;15.90;;
10872;SDS011;34586;53.616;10.032;2022-09-09T05:22:39;17.10;;;15.13;;
10872;SDS011;34586;53.616;10.032;2022-09-09T05:25:05;17.73;;;15.00;;
10872;SDS011;34586;53.616;10.032;2022-09-09T05:27:33;16.23;;;14.63;;
10872;SDS011;34586;53.616;10.032;2022-09-09T05:29:59;16.40;;;14.70;;
10872;SDS011;34586;53.616;10.032;2022-09-09T05:32:25;17.20;;;14.07;;
10872;SDS011;34586;53.616;10.032;2022-09-09T05:34:51;17.07;;;15.27;;
10872;SDS011;34586;53.616;10.032;2022-09-09T05:37:17;18.07;;;14.77;;
10872;SDS011;34586;53.616;10.032;2022-09-09T05:39:43;18.30;;;16.07;;
10872;SDS011;34586;53.616;10.032;2022-09-09T05:42:09;18.17;;;15.63;;
10872;SDS011;34586;53.616;10.032;2022-09-09T05:44:35;19.10;;;15.57;;
10872;SDS011;34586;53.616;10.032;2022-09-09T05:47:00;19.97;;;16.00;;
10872;SDS011;34586;53.616;10.032;2022-09-09T05:49:26;20.40;;;15.97;;
10872;SDS011;34586;53.616;10.032;2022-09-09T05:51:51;18.00;;;16.13;;
10872;SDS011;34586;53.616;10.032;2022-09-09T05:54:17;19.30;;;16.13;;
10872;SDS011;34586;53.616;10.032;2022-09-09T05:56:43;18.47;;;16.50;;
10872;SDS011;34586;53.616;10.032;2022-09-09T05:59:09;22.27;;;16.20;;
10872;SDS011;34586;53.616;10.032;2022-09-09T06:01:36;16.70;;;14.93;;
10872;SDS011;34586;53.616;10.032;2022-09-09T06:04:05;16.47;;;14.77;;
10872;SDS011;34586;53.616;10.032;2022-09-09T06:06:32;17.00;;;15.10;;
10872;SDS011;34586;53.616;10.032;2022-09-09T06:09:01;17.47;;;14.90;;
10872;SDS011;34586;53.616;10.032;2022-09-09T06:11:31;15.87;;;14.20;;
10872;SDS011;34586;53.616;10.032;2022-09-09T06:13:57;16.50;;;12.83;;
10872;SDS011;34586;53.616;10.032;2022-09-09T06:16:24;13.90;;;12.50;;
10872;SDS011;34586;53.616;10.032;2022-09-09T06:18:52;13.93;;;12.47;;
10872;SDS011;34586;53.616;10.032;2022-09-09T06:21:30;13.63;;;12.07;;
10872;SDS011;34586;53.616;10.032;2022-09-09T06:23:58;13.10;;;11.60;;
10872;SDS011;34586;53.616;10.032;2022-09-09T06:26:25;12.10;;;10.67;;
10872;SDS011;34586;53.616;10.032;2022-09-09T06:28:53;10.60;;;9.50;;
10872;SDS011;34586;53.616;10.032;2022-09-09T06:31:20;11.77;;;10.10;;
10872;SDS011;34586;53.616;10.032;2022-09-09T06:33:47;11.17;;;10.07;;
10872;SDS011;34586;53.616;10.032;2022-09-09T06:36:38;12.23;;;9.70;;
10872;SDS011;34586;53.616;10.032;2022-09-09T06:39:04;10.30;;;8.47;;
10872;SDS011;34586;53.616;10.032;2022-09-09T06:41:31;10.07;;;9.07;;
10872;SDS011;34586;53.616;10.032;2022-09-09T06:43:57;8.73;;;7.90;;
10872;SDS011;34586;53.616;10.032;2022-09-09T06:46:25;10.43;;;9.37;;
10872;SDS011;34586;53.616;10.032;2022-09-09T06:48:56;10.70;;;8.73;;
10872;SDS011;34586;53.616;10.032;2022-09-09T06:51:31;10.80;;;8.47;;
10872;SDS011;34586;53.616;10.032;2022-09-09T06:53:59;8.47;;;6.83;;
10872;SDS011;34586;53.616;10.032;2022-09-09T06:56:31;8.20;;;7.40;;
10872;SDS011;34586;53.616;10.032;2022-09-09T06:58:59;9.47;;;8.10;;
10872;SDS011;34586;53.616;10.032;2022-09-09T07:01:29;8.80;;;6.73;;
10872;SDS011;34586;53.616;10.032;2022-09-09T07:03:56;7.93;;;7.20;;
10872;SDS011;34586;53.616;10.032;2022-09-09T07:06:30;6.77;;;6.03;;
10872;SDS011;34586;53.616;10.032;2022-09-09T07:08:58;9.03;;;7.23;;
10872;SDS011;34586;53.616;10.032;2022-09-09T07:11:26;7.43;;;6.50;;
10872;SDS011;34586;53.616;10.032;2022-09-09T07:13:53;9.13;;;6.90;;
10872;SDS011;34586;53.616;10.032;2022-09-09T07:16:20;7.83;;;7.03;;
10872;SDS011;34586;53.616;10.032;2022-09-09T07:18:50;8.50;;;6.30;;
10872;SDS011;34586;53.616;10.032;2022-09-09T07:21:16;6.50;;;5.80;;
10872;SDS011;34586;53.616;10.032;2022-09-09T07:23:43;6.60;;;6.10;;
10872;SDS011;34586;53.616;10.032;2022-09-09T07:26:14;7.10;;;5.27;;
10872;SDS011;34586;53.616;10.032;2022-09-09T07:28:41;5.97;;;4.67;;
10872;SDS011;34586;53.616;10.032;2022-09-09T07:31:07;5.43;;;4.93;;
10872;SDS011;34586;53.616;10.032;2022-09-09T07:33:51;6.00;;;5.40;;
10872;SDS011;34586;53.616;10.032;2022-09-09T07:36:20;6.33;;;5.23;;
10872;SDS011;34586;53.616;10.032;2022-09-09T07:38:54;7.60;;;5.30;;
10872;SDS011;34586;53.616;10.032;2022-09-09T07:41:29;6.67;;;5.20;;
10872;SDS011;34586;53.616;10.032;2022-09-09T07:43:59;6.83;;;5.23;;
10872;SDS011;34586;53.616;10.032;2022-09-09T07:46:25;6.47;;;4.37;;
10872;SDS011;34586;53.616;10.032;2022-09-09T07:48:52;6.80;;;4.87;;
10872;SDS011;34586;53.616;10.032;2022-09-09T07:51:20;5.67;;;4.47;;
10872;SDS011;34586;53.616;10.032;2022-09-09T07:53:47;4.93;;;3.90;;
10872;SDS011;34586;53.616;10.032;2022-09-09T07:56:16;3.77;;;3.30;;
10872;SDS011;34586;53.616;10.032;2022-09-09T07:58:46;5.80;;;4.00;;
10872;SDS011;34586;53.616;10.032;2022-09-09T08:01:13;4.60;;;3.57;;
10872;SDS011;34586;53.616;10.032;2022-09-09T08:03:43;3.10;;;2.90;;
10872;SDS011;34586;53.616;10.032;2022-09-09T08:06:09;4.47;;;3.27;;
10872;SDS011;34586;53.616;10.032;2022-09-09T08:08:37;4.57;;;3.40;;
10872;SDS011;34586;53.616;10.032;2022-09-09T08:11:08;3.83;;;3.43;;
10872;SDS011;34586;53.616;10.032;2022-09-09T08:13:36;5.07;;;3.03;;
10872;SDS011;34586;53.616;10.032;2022-09-09T08:16:03;4.53;;;3.50;;
10872;SDS011;34586;53.616;10.032;2022-09-09T08:18:40;4.73;;;3.40;;
10872;SDS011;34586;53.616;10.032;2022-09-09T08:23:49;3.53;;;3.10;;
10872;SDS011;34586;53.616;10.032;2022-09-09T08:26:18;4.73;;;3.40;;
10872;SDS011;34586;53.616;10.032;2022-09-09T08:28:48;4.37;;;3.23;;
10872;SDS011;34586;53.616;10.032;2022-09-09T08:31:17;5.30;;;3.77;;
10872;SDS011;34586;53.616;10.032;2022-09-09T08:33:44;4.93;;;3.93;;
10872;SDS011;34586;53.616;10.032;2022-09-09T08:36:13;5.57;;;3.17;;
10872;SDS011;34586;53.616;10.032;2022-09-09T08:38:43;5.00;;;3.60;;
10872;SDS011;34586;53.616;10.032;2022-09-09T08:55:20;3.60;;;2.87;;
10872;SDS011;34586;53.616;10.032;2022-09-09T08:57:56;4.13;;;3.53;;
10872;SDS011;34586;53.616;10.032;2022-09-09T09:00:27;4.87;;;3.77;;
10872;SDS011;34586;53.616;10.032;2022-09-09T09:08:28;7.03;;;4.80;;
10872;SDS011;34586;53.616;10.032;2022-09-09T09:11:05;7.87;;;3.93;;
10872;SDS011;34586;53.616;10.032;2022-09-09T09:16:17;5.00;;;4.17;;
10872;SDS011;34586;53.616;10.032;2022-09-09T09:18:56;4.87;;;3.30;;
10872;SDS011;34586;53.616;10.032;2022-09-09T09:21:28;3.57;;;2.57;;
10872;SDS011;34586;53.616;10.032;2022-09-09T09:23:58;3.70;;;3.40;;
10872;SDS011;34586;53.616;10.032;2022-09-09T09:26:26;3.90;;;2.60;;
10872;SDS011;34586;53.616;10.032;2022-09-09T09:29:23;4.10;;;2.57;;
10872;SDS011;34586;53.616;10.032;2022-09-09T09:31:51;4.50;;;2.57;;
10872;SDS011;34586;53.616;10.032;2022-09-09T09:34:21;5.83;;;3.07;;
10872;SDS011;34586;53.616;10.032;2022-09-09T09:36:54;3.63;;;2.60;;
10872;SDS011;34586;53.616;10.032;2022-09-09T09:39:23;5.93;;;3.13;;
10872;SDS011;34586;53.616;10.032;2022-09-09T09:41:50;5.27;;;2.67;;
10872;SDS011;34586;53.616;10.032;2022-09-09T09:46:52;3.13;;;2.30;;
10872;SDS011;34586;53.616;10.032;2022-09-09T09:49:30;3.70;;;2.17;;
10872;SDS011;34586;53.616;10.032;2022-09-09T09:51:59;2.63;;;1.93;;
10872;SDS011;34586;53.616;10.032;2022-09-09T09:54:30;3.73;;;1.80;;
10872;SDS011;34586;53.616;10.032;2022-09-09T09:57:10;3.73;;;2.00;;
10872;SDS011;34586;53.616;10.032;2022-09-09T09:59:38;4.13;;;1.97;;
10872;SDS011;34586;53.616;10.032;2022-09-09T10:02:14;3.60;;;1.50;;
10872;SDS011;34586;53.616;10.032;2022-09-09T10:05:04;3.67;;;1.30;;
10872;SDS011;34586;53.616;10.032;2022-09-09T10:08:09;3.50;;;1.50;;
10872;SDS011;34586;53.616;10.032;2022-09-09T10:10:41;3.40;;;1.30;;
10872;SDS011;34586;53.616;10.032;2022-09-09T10:16:13;4.07;;;1.50;;
10872;SDS011;34586;53.616;10.032;2022-09-09T10:33:30;2.20;;;1.07;;
10872;SDS011;34586;53.616;10.032;2022-09-09T10:36:17;3.03;;;1.20;;
10872;SDS011;34586;53.616;10.032;2022-09-09T10:39:33;2.10;;;1.00;;
10872;SDS011;34586;53.616;10.032;2022-09-09T10:52:54;2.77;;;1.00;;
10872;SDS011;34586;53.616;10.032;2022-09-09T10:55:27;2.77;;;1.10;;
10872;SDS011;34586;53.616;10.032;2022-09-09T10:58:04;2.90;;;1.00;;
10872;SDS011;34586;53.616;10.032;2022-09-09T11:00:39;1.33;;;0.87;;
10872;SDS011;34586;53.616;10.032;2022-09-09T11:03:19;2.10;;;0.90;;
10872;SDS011;34586;53.616;10.032;2022-09-09T11:06:34;2.80;;;0.80;;
10872;SDS011;34586;53.616;10.032;2022-09-09T11:08:44;1.93;;;0.80;;
10872;SDS011;34586;53.616;10.032;2022-09-09T11:11:15;1.87;;;0.70;;
10872;SDS011;34586;53.616;10.032;2022-09-09T11:21:54;1.77;;;0.70;;
10872;SDS011;34586;53.616;10.032;2022-09-09T11:27:24;4.30;;;0.77;;
10872;SDS011;34586;53.616;10.032;2022-09-09T11:30:05;2.60;;;0.60;;
10872;SDS011;34586;53.616;10.032;2022-09-09T11:40:46;1.67;;;0.93;;
10872;SDS011;34586;53.616;10.032;2022-09-09T11:43:18;1.67;;;0.77;;
10872;SDS011;34586;53.616;10.032;2022-09-09T11:45:56;4.13;;;0.70;;
10872;SDS011;34586;53.616;10.032;2022-09-09T11:50:57;2.87;;;0.87;;
10872;SDS011;34586;53.616;10.032;2022-09-09T11:53:27;2.53;;;0.83;;
10872;SDS011;34586;53.616;10.032;2022-09-09T11:56:03;3.10;;;1.03;;
10872;SDS011;34586;53.616;10.032;2022-09-09T11:58:31;1.87;;;0.87;;
10872;SDS011;34586;53.616;10.032;2022-09-09T12:01:02;1.70;;;0.80;;
10872;SDS011;34586;53.616;10.032;2022-09-09T12:03:51;1.87;;;0.80;;
10872;SDS011;34586;53.616;10.032;2022-09-09T12:06:44;4.47;;;0.80;;
10872;SDS011;34586;53.616;10.032;2022-09-09T12:14:42;2.53;;;0.73;;
10872;SDS011;34586;53.616;10.032;2022-09-09T12:17:19;3.80;;;0.90;;
10872;SDS011;34586;53.616;10.032;2022-09-09T12:19:47;0.80;;;0.60;;
10872;SDS011;34586;53.616;10.032;2022-09-09T12:22:32;1.87;;;0.83;;
10872;SDS011;34586;53.616;10.032;2022-09-09T12:25:13;2.83;;;0.73;;
10872;SDS011;34586;53.616;10.032;2022-09-09T12:28:04;1.33;;;0.67;;
10872;SDS011;34586;53.616;10.032;2022-09-09T12:30:41;2.33;;;0.70;;
10872;SDS011;34586;53.616;10.032;2022-09-09T12:33:16;1.90;;;0.70;;
10872;SDS011;34586;53.616;10.032;2022-09-09T12:35:44;1.70;;;0.80;;
10872;SDS011;34586;53.616;10.032;2022-09-09T12:38:16;2.90;;;0.90;;
10872;SDS011;34586;53.616;10.032;2022-09-09T12:40:55;3.20;;;0.80;;
10872;SDS011;34586;53.616;10.032;2022-09-09T12:43:22;2.80;;;1.10;;
10872;SDS011;34586;53.616;10.032;2022-09-09T12:45:50;3.13;;;1.20;;
10872;SDS011;34586;53.616;10.032;2022-09-09T12:48:22;3.47;;;1.00;;
10872;SDS011;34586;53.616;10.032;2022-09-09T12:50:53;3.27;;;0.90;;
10872;SDS011;34586;53.616;10.032;2022-09-09T12:53:30;2.60;;;1.10;;
10872;SDS011;34586;53.616;10.032;2022-09-09T12:56:00;1.97;;;0.97;;
10872;SDS011;34586;53.616;10.032;2022-09-09T12:58:35;1.80;;;0.90;;
10872;SDS011;34586;53.616;10.032;2022-09-09T13:01:02;1.63;;;0.90;;
10872;SDS011;34586;53.616;10.032;2022-09-09T13:03:30;4.67;;;1.20;;
10872;SDS011;34586;53.616;10.032;2022-09-09T13:06:21;4.00;;;1.40;;
10872;SDS011;34586;53.616;10.032;2022-09-09T13:08:52;2.80;;;1.27;;
10872;SDS011;34586;53.616;10.032;2022-09-09T13:11:20;2.10;;;1.00;;
10872;SDS011;34586;53.616;10.032;2022-09-09T13:13:52;3.20;;;1.23;;
10872;SDS011;34586;53.616;10.032;2022-09-09T13:16:27;2.33;;;0.90;;
10872;SDS011;34586;53.616;10.032;2022-09-09T13:18:59;2.50;;;1.20;;
10872;SDS011;34586;53.616;10.032;2022-09-09T13:21:33;2.87;;;1.30;;
10872;SDS011;34586;53.616;10.032;2022-09-09T13:24:04;2.90;;;1.13;;
10872;SDS011;34586;53.616;10.032;2022-09-09T13:26:55;2.80;;;1.13;;
10872;SDS011;34586;53.616;10.032;2022-09-09T13:29:22;3.97;;;1.10;;
10872;SDS011;34586;53.616;10.032;2022-09-09T13:31:48;2.77;;;1.40;;
10872;SDS011;34586;53.616;10.032;2022-09-09T13:36:58;3.73;;;1.30;;
10872;SDS011;34586;53.616;10.032;2022-09-09T13:39:30;3.27;;;1.30;;
10872;SDS011;34586;53.616;10.032;2022-09-09T13:41:58;3.07;;;1.80;;
10872;SDS011;34586;53.616;10.032;2022-09-09T13:44:25;3.10;;;1.70;;
10872;SDS011;34586;53.616;10.032;2022-09-09T13:47:04;4.33;;;1.73;;
10872;SDS011;34586;53.616;10.032;2022-09-09T13:49:41;3.53;;;1.33;;
10872;SDS011;34586;53.616;10.032;2022-09-09T13:52:13;3.07;;;1.80;;
10872;SDS011;34586;53.616;10.032;2022-09-09T13:54:46;9.00;;;2.07;;
10872;SDS011;34586;53.616;10.032;2022-09-09T13:57:23;3.83;;;2.20;;
10872;SDS011;34586;53.616;10.032;2022-09-09T13:59:50;4.70;;;2.43;;
10872;SDS011;34586;53.616;10.032;2022-09-09T14:02:16;4.70;;;2.23;;
10872;SDS011;34586;53.616;10.032;2022-09-09T14:04:42;5.27;;;2.00;;
10872;SDS011;34586;53.616;10.032;2022-09-09T14:07:09;3.80;;;2.10;;
10872;SDS011;34586;53.616;10.032;2022-09-09T14:09:38;3.70;;;2.13;;
10872;SDS011;34586;53.616;10.032;2022-09-09T14:12:04;7.00;;;2.00;;
10872;SDS011;34586;53.616;10.032;2022-09-09T14:14:30;2.30;;;2.10;;
10872;SDS011;34586;53.616;10.032;2022-09-09T14:16:55;3.73;;;2.10;;
10872;SDS011;34586;53.616;10.032;2022-09-09T14:19:21;3.83;;;2.50;;
10872;SDS011;34586;53.616;10.032;2022-09-09T14:21:47;5.83;;;3.00;;
10872;SDS011;34586;53.616;10.032;2022-09-09T14:24:13;5.30;;;2.90;;
10872;SDS011;34586;53.616;10.032;2022-09-09T14:26:39;5.13;;;2.40;;
10872;SDS011;34586;53.616;10.032;2022-09-09T14:29:05;2.70;;;2.50;;
10872;SDS011;34586;53.616;10.032;2022-09-09T14:31:31;6.53;;;2.80;;
10872;SDS011;34586;53.616;10.032;2022-09-09T14:33:57;3.87;;;2.93;;
10872;SDS011;34586;53.616;10.032;2022-09-09T14:36:23;4.00;;;2.80;;
10872;SDS011;34586;53.616;10.032;2022-09-09T14:38:49;4.90;;;3.13;;
10872;SDS011;34586;53.616;10.032;2022-09-09T14:41:16;6.17;;;3.00;;
10872;SDS011;34586;53.616;10.032;2022-09-09T14:43:43;4.37;;;3.10;;
10872;SDS011;34586;53.616;10.032;2022-09-09T14:46:14;7.80;;;3.80;;
10872;SDS011;34586;53.616;10.032;2022-09-09T14:48:41;7.90;;;4.87;;
10872;SDS011;34586;53.616;10.032;2022-09-09T14:51:10;4.33;;;3.63;;
10872;SDS011;34586;53.616;10.032;2022-09-09T14:53:42;4.17;;;2.70;;
10872;SDS011;34586;53.616;10.032;2022-09-09T14:56:12;2.63;;;1.87;;
10872;SDS011;34586;53.616;10.032;2022-09-09T14:58:40;3.23;;;1.70;;
10872;SDS011;34586;53.616;10.032;2022-09-09T15:01:07;2.33;;;2.13;;
10872;SDS011;34586;53.616;10.032;2022-09-09T15:03:35;2.70;;;2.20;;
10872;SDS011;34586;53.616;10.032;2022-09-09T15:06:09;4.50;;;2.50;;
10872;SDS011;34586;53.616;10.032;2022-09-09T15:08:37;4.70;;;1.90;;
10872;SDS011;34586;53.616;10.032;2022-09-09T15:11:04;7.40;;;2.43;;
10872;SDS011;34586;53.616;10.032;2022-09-09T15:13:32;5.30;;;2.57;;
10872;SDS011;34586;53.616;10.032;2022-09-09T15:16:11;3.60;;;2.57;;
10872;SDS011;34586;53.616;10.032;2022-09-09T15:18:39;4.70;;;2.43;;
10872;SDS011;34586;53.616;10.032;2022-09-09T15:21:08;6.33;;;2.57;;
10872;SDS011;34586;53.616;10.032;2022-09-09T15:23:42;4.40;;;2.30;;
10872;SDS011;34586;53.616;10.032;2022-09-09T15:26:08;4.87;;;2.10;;
10872;SDS011;34586;53.616;10.032;2022-09-09T15:28:35;3.60;;;2.30;;
10872;SDS011;34586;53.616;10.032;2022-09-09T15:31:06;4.30;;;1.93;;
10872;SDS011;34586;53.616;10.032;2022-09-09T15:33:34;4.10;;;2.20;;
10872;SDS011;34586;53.616;10.032;2022-09-09T15:36:22;4.10;;;1.60;;
10872;SDS011;34586;53.616;10.032;2022-09-09T15:38:49;3.43;;;1.63;;
10872;SDS011;34586;53.616;10.032;2022-09-09T15:41:15;2.80;;;1.80;;
10872;SDS011;34586;53.616;10.032;2022-09-09T15:43:45;2.63;;;1.33;;
10872;SDS011;34586;53.616;10.032;2022-09-09T15:46:21;2.00;;;1.37;;
10872;SDS011;34586;53.616;10.032;2022-09-09T15:48:49;3.97;;;1.70;;
10872;SDS011;34586;53.616;10.032;2022-09-09T15:51:15;1.60;;;1.30;;
10872;SDS011;34586;53.616;10.032;2022-09-09T15:53:41;2.20;;;1.30;;
10872;SDS011;34586;53.616;10.032;2022-09-09T15:56:07;4.80;;;1.60;;
10872;SDS011;34586;53.616;10.032;2022-09-09T15:58:33;2.73;;;1.13;;
10872;SDS011;34586;53.616;10.032;2022-09-09T16:01:07;3.97;;;1.27;;
10872;SDS011;34586;53.616;10.032;2022-09-09T16:03:34;1.80;;;1.40;;
10872;SDS011;34586;53.616;10.032;2022-09-09T16:06:01;2.10;;;1.37;;
10872;SDS011;34586;53.616;10.032;2022-09-09T16:08:37;1.87;;;1.50;;
10872;SDS011;34586;53.616;10.032;2022-09-09T16:11:05;2.37;;;1.57;;
10872;SDS011;34586;53.616;10.032;2022-09-09T16:13:34;3.27;;;1.53;;
10872;SDS011;34586;53.616;10.032;2022-09-09T16:16:01;2.13;;;1.30;;
10872;SDS011;34586;53.616;10.032;2022-09-09T16:18:32;2.50;;;1.57;;
10872;SDS011;34586;53.616;10.032;2022-09-09T16:21:12;2.90;;;1.67;;
10872;SDS011;34586;53.616;10.032;2022-09-09T16:23:54;3.90;;;1.93;;
10872;SDS011;34586;53.616;10.032;2022-09-09T16:26:20;2.47;;;1.20;;
10872;SDS011;34586;53.616;10.032;2022-09-09T16:28:47;2.70;;;1.70;;
10872;SDS011;34586;53.616;10.032;2022-09-09T16:31:17;2.53;;;1.40;;
10872;SDS011;34586;53.616;10.032;2022-09-09T16:33:44;2.23;;;1.47;;
10872;SDS011;34586;53.616;10.032;2022-09-09T16:36:15;2.93;;;1.37;;
10872;SDS011;34586;53.616;10.032;2022-09-09T16:38:42;1.83;;;1.57;;
10872;SDS011;34586;53.616;10.032;2022-09-09T16:41:08;3.03;;;1.80;;
10872;SDS011;34586;53.616;10.032;2022-09-09T16:43:35;3.17;;;1.60;;
10872;SDS011;34586;53.616;10.032;2022-09-09T16:46:02;4.27;;;1.47;;
10872;SDS011;34586;53.616;10.032;2022-09-09T16:48:35;3.67;;;1.30;;